createdAt,value
2022-11-21T00:01:00.694Z,8.00
2022-11-21T00:05:59.582Z,8.00
2022-11-21T00:10:58.669Z,8.00
2022-11-21T00:15:57.606Z,8.00
2022-11-21T00:20:59.565Z,8.00
2022-11-21T00:25:58.685Z,7.70
2022-11-21T00:30:57.589Z,7.50
2022-11-21T00:35:56.620Z,7.40
2022-11-21T00:40:55.820Z,7.30
2022-11-21T00:45:54.634Z,7.30
2022-11-21T00:50:53.659Z,7.20
2022-11-21T00:55:52.663Z,7.20
2022-11-21T01:00:51.696Z,7.20
2022-11-21T01:05:50.681Z,7.10
2022-11-21T01:10:49.605Z,7.00
2022-11-21T01:15:48.712Z,7.00
2022-11-21T01:20:47.701Z,7.00
2022-11-21T01:25:46.644Z,7.00
2022-11-21T01:30:48.699Z,6.90
2022-11-21T01:35:50.661Z,6.80
2022-11-21T01:40:49.700Z,6.80
2022-11-21T01:45:48.604Z,6.80
2022-11-21T01:50:47.618Z,6.70
2022-11-21T01:55:46.624Z,6.70
2022-11-21T02:00:45.733Z,6.80
2022-11-21T02:05:44.724Z,6.90
2022-11-21T02:10:43.987Z,6.80
2022-11-21T02:15:42.700Z,6.80
2022-11-21T02:20:41.618Z,6.90
2022-11-21T02:25:41.901Z,6.90
2022-11-21T02:30:40.730Z,6.70
2022-11-21T02:35:39.646Z,6.70
2022-11-21T02:40:38.678Z,6.80
2022-11-21T02:45:37.669Z,6.80
2022-11-21T02:50:36.685Z,6.90
2022-11-21T02:55:35.701Z,6.80
2022-11-21T03:00:34.634Z,6.80
2022-11-21T03:05:33.713Z,6.80
2022-11-21T03:10:32.720Z,6.70
2022-11-21T03:15:31.733Z,6.70
2022-11-21T03:20:30.741Z,6.70
2022-11-21T03:25:29.652Z,6.80
2022-11-21T03:30:28.869Z,6.80
2022-11-21T03:35:27.780Z,6.90
2022-11-21T03:40:26.682Z,6.90
2022-11-21T03:45:25.637Z,6.90
2022-11-21T03:50:24.713Z,6.80
2022-11-21T03:55:23.718Z,6.80
2022-11-21T04:00:22.633Z,6.80
2022-11-21T04:05:21.763Z,6.80
2022-11-21T04:10:20.911Z,6.80
2022-11-21T04:15:19.886Z,6.80
2022-11-21T04:20:18.687Z,6.80
2022-11-21T04:25:17.993Z,6.70
2022-11-21T04:30:16.813Z,6.70
2022-11-21T04:35:15.722Z,6.70
2022-11-21T04:40:15.158Z,6.70
2022-11-21T04:45:13.756Z,6.70
2022-11-21T04:50:12.747Z,6.70
2022-11-21T04:55:11.754Z,6.80
2022-11-21T05:00:10.769Z,6.80
2022-11-21T05:05:09.778Z,6.90
2022-11-21T05:10:09.003Z,6.90
2022-11-21T05:15:07.702Z,7.00
2022-11-21T05:20:06.814Z,7.00
2022-11-21T05:25:05.835Z,7.10
2022-11-21T05:30:05.042Z,7.20
2022-11-21T05:35:03.810Z,7.20
2022-11-21T05:40:02.853Z,7.30
2022-11-21T05:45:02.776Z,7.30
2022-11-21T05:50:01.838Z,7.30
2022-11-21T05:55:00.924Z,7.40
2022-11-21T05:59:59.810Z,7.40
2022-11-21T06:04:58.906Z,7.40
2022-11-21T06:09:57.774Z,7.50
2022-11-21T06:14:56.774Z,7.50
2022-11-21T06:19:55.956Z,7.50
2022-11-21T06:24:54.822Z,7.60
2022-11-21T06:29:54.048Z,7.60
2022-11-21T06:34:52.811Z,7.60
2022-11-21T06:39:51.818Z,7.60
2022-11-21T06:44:50.843Z,7.60
2022-11-21T06:49:49.750Z,7.60
2022-11-21T06:54:48.783Z,7.60
2022-11-21T06:59:47.865Z,7.60
2022-11-21T07:04:46.884Z,7.70
2022-11-21T07:09:47.363Z,7.80
2022-11-21T07:14:46.946Z,7.80
2022-11-21T07:19:45.813Z,7.80
2022-11-21T07:24:44.918Z,7.80
2022-11-21T07:29:43.980Z,7.90
2022-11-21T07:34:43.189Z,7.90
2022-11-21T07:39:42.075Z,8.00
2022-11-21T07:44:40.802Z,8.10
2022-11-21T07:49:39.915Z,8.10
2022-11-21T07:54:38.844Z,8.20
2022-11-21T07:59:37.844Z,8.30
2022-11-21T08:04:36.820Z,8.40
2022-11-21T08:09:39.998Z,8.50
2022-11-21T08:14:38.987Z,8.50
2022-11-21T08:19:37.902Z,8.50
2022-11-21T08:24:36.899Z,8.60
2022-11-21T08:29:35.803Z,8.80
2022-11-21T08:34:34.814Z,9.00
2022-11-21T08:39:33.903Z,9.10
2022-11-21T08:44:32.865Z,9.10
2022-11-21T08:49:32.147Z,9.00
2022-11-21T08:54:31.203Z,9.00
2022-11-21T08:59:30.072Z,9.10
2022-11-21T09:04:29.117Z,9.10
2022-11-21T09:09:27.939Z,9.10
2022-11-21T09:14:45.058Z,9.10
2022-11-21T09:19:43.951Z,9.10
2022-11-21T09:24:42.851Z,9.30
2022-11-21T09:29:41.850Z,9.40
2022-11-21T09:34:40.947Z,9.50
2022-11-21T09:39:39.958Z,9.90
2022-11-21T09:44:39.053Z,10.10
2022-11-21T09:49:37.854Z,10.50
2022-11-21T09:54:36.838Z,10.70
2022-11-21T09:59:36.634Z,10.70
2022-11-21T10:04:36.063Z,10.80
2022-11-21T10:09:34.843Z,10.70
2022-11-21T10:14:33.857Z,10.80
2022-11-21T10:19:32.893Z,10.70
2022-11-21T10:24:32.102Z,10.70
2022-11-21T10:29:30.841Z,10.70
2022-11-21T10:34:30.446Z,10.70
2022-11-21T10:39:30.150Z,10.70
2022-11-21T10:44:47.194Z,10.50
2022-11-21T10:49:45.925Z,10.40
2022-11-21T10:54:45.006Z,10.30
2022-11-21T10:59:43.917Z,10.20
2022-11-21T11:04:49.010Z,10.10
2022-11-21T11:09:46.342Z,10.30
2022-11-21T11:14:45.177Z,10.60
2022-11-21T11:19:44.318Z,11.00
2022-11-21T11:24:43.180Z,11.10
2022-11-21T11:29:42.198Z,11.10
2022-11-21T11:34:41.228Z,11.00
2022-11-21T11:39:39.913Z,10.90
2022-11-21T11:44:57.037Z,10.90
2022-11-21T11:50:11.113Z,10.90
2022-11-21T11:55:10.033Z,10.90
2022-11-21T12:00:11.741Z,10.90
2022-11-21T12:05:11.016Z,10.80
2022-11-21T12:10:10.020Z,10.70
2022-11-21T12:15:27.197Z,10.80
2022-11-21T12:20:25.998Z,11.00
2022-11-21T12:25:25.229Z,11.60
2022-11-21T12:30:23.966Z,12.30
2022-11-21T12:35:23.031Z,12.40
2022-11-21T12:40:22.081Z,12.40
2022-11-21T12:45:21.315Z,12.40
2022-11-21T12:50:42.310Z,12.20
2022-11-21T12:55:41.131Z,12.00
2022-11-21T13:00:40.050Z,11.60
2022-11-21T13:05:40.062Z,11.20
2022-11-21T13:10:41.264Z,11.10
2022-11-21T13:15:40.062Z,11.10
2022-11-21T13:20:39.091Z,11.30
2022-11-21T13:25:38.363Z,11.30
2022-11-21T13:30:37.311Z,11.50
2022-11-21T13:35:36.104Z,11.70
2022-11-21T13:40:35.139Z,11.70
2022-11-21T13:45:34.157Z,11.60
2022-11-21T13:50:33.060Z,11.60
2022-11-21T13:55:32.188Z,11.50
2022-11-21T14:00:31.181Z,11.60
2022-11-21T14:05:30.391Z,11.60
2022-11-21T14:10:29.197Z,11.60
2022-11-21T14:15:28.217Z,11.50
2022-11-21T14:20:27.094Z,11.40
2022-11-21T14:25:26.118Z,11.40
2022-11-21T14:30:25.142Z,11.30
2022-11-21T14:35:24.252Z,11.10
2022-11-21T14:40:23.266Z,10.80
2022-11-21T14:45:22.284Z,10.60
2022-11-21T14:50:21.278Z,10.40
2022-11-21T14:55:30.264Z,10.30
2022-11-21T15:00:51.466Z,10.10
2022-11-21T15:05:46.864Z,10.00
2022-11-21T15:10:28.975Z,9.80
2022-11-21T15:15:25.303Z,9.60
2022-11-21T15:20:24.151Z,9.50
2022-11-21T15:25:23.175Z,9.40
2022-11-21T15:30:22.183Z,9.30
2022-11-21T15:35:21.202Z,9.20
2022-11-21T15:40:20.121Z,9.10
2022-11-21T15:50:20.125Z,8.90
2022-11-21T15:55:19.157Z,8.90
2022-11-21T15:57:12.893Z,9.00
2022-11-21T16:00:18.219Z,8.90
2022-11-21T16:05:17.324Z,8.80
2022-11-21T16:10:21.427Z,8.80
2022-11-21T16:15:17.284Z,8.80
2022-11-21T16:20:16.260Z,8.80
2022-11-21T16:25:15.198Z,8.80
2022-11-21T16:30:16.430Z,8.80
2022-11-21T16:35:15.266Z,8.80
2022-11-21T16:40:14.291Z,8.80
2022-11-21T16:45:13.571Z,8.80
2022-11-21T16:50:12.167Z,8.90
2022-11-21T16:55:11.543Z,8.90
2022-11-21T17:00:11.583Z,8.90
2022-11-21T17:05:10.344Z,8.90
2022-11-21T17:10:09.210Z,8.80
2022-11-21T17:15:08.835Z,8.80
2022-11-21T17:20:08.212Z,8.90
2022-11-21T17:25:07.212Z,8.90
2022-11-21T17:30:06.235Z,8.80
2022-11-21T17:35:05.335Z,8.80
2022-11-21T17:40:06.178Z,8.90
2022-11-21T17:45:05.310Z,8.80
2022-11-21T17:50:06.171Z,8.80
2022-11-21T17:55:05.168Z,8.80
2022-11-21T18:00:05.190Z,8.80
2022-11-21T18:05:04.232Z,8.80
2022-11-21T18:10:27.552Z,8.70
2022-11-21T18:15:04.472Z,8.70
2022-11-21T18:20:03.627Z,8.60
2022-11-21T18:25:02.424Z,8.60
2022-11-21T18:30:01.343Z,8.60
2022-11-21T18:35:00.433Z,8.60
2022-11-21T18:39:59.209Z,8.70
2022-11-21T18:44:58.428Z,8.70
2022-11-21T18:49:57.217Z,8.70
2022-11-21T18:54:56.390Z,8.70
2022-11-21T18:59:55.339Z,8.70
2022-11-21T19:04:54.428Z,8.70
2022-11-21T19:09:53.207Z,8.70
2022-11-21T19:14:54.323Z,8.70
2022-11-21T19:19:53.308Z,8.70
2022-11-21T19:24:52.403Z,8.80
2022-11-21T19:29:53.423Z,8.80
2022-11-21T19:34:52.580Z,8.80
2022-11-21T19:39:51.211Z,8.80
2022-11-21T19:44:50.407Z,8.80
2022-11-21T19:49:49.483Z,8.80
2022-11-21T19:54:48.414Z,8.80
2022-11-21T19:59:47.247Z,8.80
2022-11-21T20:04:46.435Z,8.80
2022-11-21T20:09:46.134Z,8.80
2022-11-21T20:14:45.281Z,8.80
2022-11-21T20:19:50.315Z,8.80
2022-11-21T20:24:48.862Z,8.80
2022-11-21T20:29:46.362Z,8.80
2022-11-21T20:34:45.427Z,8.90
2022-11-21T20:39:44.261Z,8.80
2022-11-21T20:49:44.242Z,8.80
2022-11-21T20:54:43.290Z,8.90
2022-11-21T20:59:42.321Z,8.90
2022-11-21T21:04:41.433Z,8.90
2022-11-21T21:09:40.355Z,8.90
2022-11-21T21:14:39.470Z,8.90
2022-11-21T21:19:38.388Z,9.00
2022-11-21T21:24:37.417Z,9.00
2022-11-21T21:29:36.277Z,9.00
2022-11-21T21:34:35.389Z,9.00
2022-11-21T21:39:34.296Z,9.00
2022-11-21T21:44:33.830Z,9.00
2022-11-21T21:49:33.461Z,9.00
2022-11-21T21:54:32.685Z,9.00
2022-11-21T21:59:32.537Z,9.00
2022-11-21T22:04:33.298Z,8.90
2022-11-21T22:09:32.409Z,9.00
2022-11-21T22:14:31.794Z,9.00
2022-11-21T22:19:31.493Z,9.00
2022-11-21T22:24:30.427Z,9.00
2022-11-21T22:29:29.345Z,9.00
2022-11-21T22:34:28.669Z,9.00
2022-11-21T22:39:27.453Z,9.00
2022-11-21T22:44:26.571Z,8.90
2022-11-21T22:49:25.313Z,8.80
2022-11-21T22:54:24.478Z,8.70
2022-11-21T22:59:23.471Z,8.80
2022-11-21T23:04:22.477Z,8.70
2022-11-21T23:09:21.532Z,8.80
2022-11-21T23:14:20.325Z,8.70
2022-11-21T23:19:19.549Z,8.70
2022-11-21T23:24:18.341Z,8.70
2022-11-21T23:29:17.629Z,8.70
2022-11-21T23:34:16.753Z,8.70
2022-11-21T23:39:15.393Z,8.70
2022-11-21T23:44:14.380Z,8.70
2022-11-21T23:49:13.397Z,8.70
2022-11-21T23:54:12.401Z,8.70
2022-11-21T23:59:11.324Z,8.70
